Terminal Aerodrome Forecast
Issued by NWS Chicago, IL

Home | Current Version | Previous Version | Graphics & Text | Print | Product List | Glossary On
Versions: 1 2 3 4 5 6 7 8 9 10 11 12 13 14 15 16 17 18 19 20 21 22 23 24 25 26 27 28 29 30 31
852
FTUS43 KLOT 272321
TAFRFD
TAF
KRFD 272321Z 2800/2824 01007KT P6SM BKN019 OVC025
     FM280200 03009KT 5SM BR OVC015
     FM281600 03009KT P6SM OVC018
     FM282000 04010KT P6SM FEW025 SCT035 BKN200=

USA.gov is the U.S. government's official web portal to all federal, state and local government web resources and services.